TimeCST,TemperatureF,Dew PointF,Humidity,Sea Level PressureIn,VisibilityMPH,Wind Direction,Wind SpeedMPH,Gust SpeedMPH,PrecipitationIn,Events,Conditions,WindDirDegrees,DateUTC
12:52 AM,19.9,5.0,52,29.97,10.0,WNW,23.0,35.7,N/A,,Clear,290,2013-01-20 06:52:00
1:52 AM,18.0,3.9,54,30.03,10.0,WNW,19.6,32.2,N/A,,Partly Cloudy,290,2013-01-20 07:52:00
2:52 AM,16.0,3.9,59,30.09,10.0,WNW,15.0,27.6,N/A,,Clear,290,2013-01-20 08:52:00
3:52 AM,12.9,-0.9,54,30.14,10.0,WNW,13.8,29.9,N/A,,Clear,300,2013-01-20 09:52:00
4:52 AM,10.9,-2.0,56,30.19,10.0,WNW,9.2,19.6,N/A,,Clear,300,2013-01-20 10:52:00
5:52 AM,10.9,-0.9,59,30.22,10.0,WNW,9.2,16.1,N/A,,Clear,290,2013-01-20 11:52:00
6:52 AM,10.0,-0.9,61,30.25,10.0,WNW,6.9,-,N/A,,Clear,290,2013-01-20 12:52:00
7:52 AM,10.0,-0.9,61,30.28,10.0,WNW,6.9,17.3,N/A,,Clear,290,2013-01-20 13:52:00
8:52 AM,10.9,-0.9,59,30.31,10.0,WNW,10.4,19.6,N/A,,Clear,290,2013-01-20 14:52:00
9:52 AM,12.9,-0.9,54,30.32,10.0,West,12.7,19.6,N/A,,Clear,280,2013-01-20 15:52:00
10:52 AM,14.0,-0.0,54,30.32,10.0,WNW,9.2,-,N/A,,Clear,290,2013-01-20 16:52:00
11:52 AM,17.1,-0.0,47,30.30,10.0,West,8.1,18.4,N/A,,Clear,270,2013-01-20 17:52:00
12:52 PM,16.0,-0.0,49,30.30,10.0,WNW,10.4,17.3,N/A,,Clear,300,2013-01-20 18:52:00
1:52 PM,17.1,-0.9,45,30.28,10.0,WNW,10.4,-,N/A,,Clear,290,2013-01-20 19:52:00
2:52 PM,17.1,-2.9,41,30.29,10.0,WNW,11.5,17.3,N/A,,Clear,300,2013-01-20 20:52:00
3:52 PM,17.1,-2.0,43,30.30,10.0,WNW,10.4,16.1,N/A,,Clear,300,2013-01-20 21:52:00
4:52 PM,15.1,-2.0,47,30.30,10.0,WNW,4.6,-,N/A,,Mostly Cloudy,300,2013-01-20 22:52:00
5:52 PM,15.1,-0.0,51,30.30,10.0,West,3.5,-,N/A,,Overcast,270,2013-01-20 23:52:00
6:52 PM,15.1,-0.0,51,30.30,10.0,West,4.6,-,N/A,,Overcast,260,2013-01-21 00:52:00
7:52 PM,14.0,1.0,56,30.29,10.0,West,3.5,-,N/A,,Scattered Clouds,260,2013-01-21 01:52:00
8:52 PM,12.9,1.0,59,30.27,10.0,Calm,Calm,-,N/A,,Clear,0,2013-01-21 02:52:00
9:52 PM,12.0,-0.0,59,30.26,10.0,West,4.6,-,N/A,,Clear,260,2013-01-21 03:52:00
10:52 PM,12.0,1.0,61,30.25,10.0,West,4.6,-,N/A,,Mostly Cloudy,270,2013-01-21 04:52:00
11:52 PM,12.9,1.9,62,30.23,10.0,WNW,5.8,-,N/A,,Overcast,290,2013-01-21 05:52:00